sensor_id;sensor_type;location;lat;lon;timestamp;P1;durP1;ratioP1;P2;durP2;ratioP2
50337;SDS011;46221;51.178;5.900;2023-06-22T00:00:49;5.57;;;2.80;;
50337;SDS011;46221;51.178;5.900;2023-06-22T00:03:19;4.22;;;2.67;;
50337;SDS011;46221;51.178;5.900;2023-06-22T00:05:46;3.15;;;2.47;;
50337;SDS011;46221;51.178;5.900;2023-06-22T00:08:13;5.25;;;2.70;;
50337;SDS011;46221;51.178;5.900;2023-06-22T00:10:40;4.05;;;2.42;;
50337;SDS011;46221;51.178;5.900;2023-06-22T00:13:06;4.18;;;2.53;;
50337;SDS011;46221;51.178;5.900;2023-06-22T00:15:33;3.47;;;2.55;;
50337;SDS011;46221;51.178;5.900;2023-06-22T00:17:59;3.42;;;2.50;;
50337;SDS011;46221;51.178;5.900;2023-06-22T00:20:26;3.90;;;2.72;;
50337;SDS011;46221;51.178;5.900;2023-06-22T00:22:55;3.80;;;2.67;;
50337;SDS011;46221;51.178;5.900;2023-06-22T00:25:21;3.63;;;2.33;;
50337;SDS011;46221;51.178;5.900;2023-06-22T00:27:48;3.97;;;2.50;;
50337;SDS011;46221;51.178;5.900;2023-06-22T00:30:17;4.38;;;2.20;;
50337;SDS011;46221;51.178;5.900;2023-06-22T00:32:44;3.60;;;2.40;;
50337;SDS011;46221;51.178;5.900;2023-06-22T00:35:11;2.97;;;2.08;;
50337;SDS011;46221;51.178;5.900;2023-06-22T00:37:38;3.53;;;2.70;;
50337;SDS011;46221;51.178;5.900;2023-06-22T00:40:08;3.85;;;2.67;;
50337;SDS011;46221;51.178;5.900;2023-06-22T00:42:37;4.18;;;2.50;;
50337;SDS011;46221;51.178;5.900;2023-06-22T00:45:05;3.90;;;2.72;;
50337;SDS011;46221;51.178;5.900;2023-06-22T00:47:31;3.30;;;2.38;;
50337;SDS011;46221;51.178;5.900;2023-06-22T00:49:58;4.72;;;2.55;;
50337;SDS011;46221;51.178;5.900;2023-06-22T00:52:24;5.03;;;2.78;;
50337;SDS011;46221;51.178;5.900;2023-06-22T00:54:56;4.57;;;2.45;;
50337;SDS011;46221;51.178;5.900;2023-06-22T00:57:23;3.67;;;2.50;;
50337;SDS011;46221;51.178;5.900;2023-06-22T00:59:54;4.07;;;2.63;;
50337;SDS011;46221;51.178;5.900;2023-06-22T01:02:21;3.70;;;2.83;;
50337;SDS011;46221;51.178;5.900;2023-06-22T01:04:47;5.95;;;3.13;;
50337;SDS011;46221;51.178;5.900;2023-06-22T01:10:03;4.35;;;2.67;;
50337;SDS011;46221;51.178;5.900;2023-06-22T01:12:32;6.72;;;3.22;;
50337;SDS011;46221;51.178;5.900;2023-06-22T01:15:10;3.95;;;2.58;;
50337;SDS011;46221;51.178;5.900;2023-06-22T01:17:38;3.97;;;2.83;;
50337;SDS011;46221;51.178;5.900;2023-06-22T01:20:06;5.10;;;3.30;;
50337;SDS011;46221;51.178;5.900;2023-06-22T01:22:37;4.28;;;3.28;;
50337;SDS011;46221;51.178;5.900;2023-06-22T01:25:11;6.63;;;3.45;;
50337;SDS011;46221;51.178;5.900;2023-06-22T01:30:07;4.78;;;2.80;;
50337;SDS011;46221;51.178;5.900;2023-06-22T01:32:37;5.18;;;3.40;;
50337;SDS011;46221;51.178;5.900;2023-06-22T01:35:05;4.90;;;3.25;;
50337;SDS011;46221;51.178;5.900;2023-06-22T01:37:32;5.43;;;2.60;;
50337;SDS011;46221;51.178;5.900;2023-06-22T01:39:59;5.47;;;3.17;;
50337;SDS011;46221;51.178;5.900;2023-06-22T01:42:26;5.55;;;2.83;;
50337;SDS011;46221;51.178;5.900;2023-06-22T01:44:53;5.28;;;3.00;;
50337;SDS011;46221;51.178;5.900;2023-06-22T01:47:20;4.38;;;3.17;;
50337;SDS011;46221;51.178;5.900;2023-06-22T01:49:47;4.38;;;2.80;;
50337;SDS011;46221;51.178;5.900;2023-06-22T01:52:13;4.82;;;3.03;;
50337;SDS011;46221;51.178;5.900;2023-06-22T01:54:40;4.38;;;2.97;;
50337;SDS011;46221;51.178;5.900;2023-06-22T01:57:06;4.38;;;2.80;;
50337;SDS011;46221;51.178;5.900;2023-06-22T01:59:34;6.45;;;3.45;;
50337;SDS011;46221;51.178;5.900;2023-06-22T02:02:04;5.22;;;3.10;;
50337;SDS011;46221;51.178;5.900;2023-06-22T02:07:01;5.47;;;3.65;;
50337;SDS011;46221;51.178;5.900;2023-06-22T02:09:31;4.35;;;2.85;;
50337;SDS011;46221;51.178;5.900;2023-06-22T02:11:59;5.47;;;3.13;;
50337;SDS011;46221;51.178;5.900;2023-06-22T02:14:26;5.53;;;3.33;;
50337;SDS011;46221;51.178;5.900;2023-06-22T02:16:53;3.60;;;2.55;;
50337;SDS011;46221;51.178;5.900;2023-06-22T02:19:23;6.60;;;3.58;;
50337;SDS011;46221;51.178;5.900;2023-06-22T02:21:49;6.55;;;3.80;;
50337;SDS011;46221;51.178;5.900;2023-06-22T02:24:16;4.18;;;2.95;;
50337;SDS011;46221;51.178;5.900;2023-06-22T02:26:42;5.38;;;3.45;;
50337;SDS011;46221;51.178;5.900;2023-06-22T02:29:10;5.53;;;3.90;;
50337;SDS011;46221;51.178;5.900;2023-06-22T02:31:37;4.18;;;3.10;;
50337;SDS011;46221;51.178;5.900;2023-06-22T02:34:03;4.95;;;3.15;;
50337;SDS011;46221;51.178;5.900;2023-06-22T02:36:29;5.43;;;3.35;;
50337;SDS011;46221;51.178;5.900;2023-06-22T02:38:56;5.45;;;3.30;;
50337;SDS011;46221;51.178;5.900;2023-06-22T02:41:27;5.68;;;3.70;;
50337;SDS011;46221;51.178;5.900;2023-06-22T02:43:54;4.80;;;3.05;;
50337;SDS011;46221;51.178;5.900;2023-06-22T02:46:20;6.55;;;3.13;;
50337;SDS011;46221;51.178;5.900;2023-06-22T02:48:47;6.25;;;3.10;;
50337;SDS011;46221;51.178;5.900;2023-06-22T02:51:13;4.78;;;3.10;;
50337;SDS011;46221;51.178;5.900;2023-06-22T02:53:41;5.18;;;3.50;;
50337;SDS011;46221;51.178;5.900;2023-06-22T02:56:10;5.03;;;3.10;;
50337;SDS011;46221;51.178;5.900;2023-06-22T02:58:37;4.95;;;3.25;;
50337;SDS011;46221;51.178;5.900;2023-06-22T03:01:05;6.30;;;3.63;;
50337;SDS011;46221;51.178;5.900;2023-06-22T03:03:32;5.95;;;3.22;;
50337;SDS011;46221;51.178;5.900;2023-06-22T03:05:59;4.13;;;3.00;;
50337;SDS011;46221;51.178;5.900;2023-06-22T03:08:27;4.30;;;3.20;;
50337;SDS011;46221;51.178;5.900;2023-06-22T03:10:54;5.20;;;3.13;;
50337;SDS011;46221;51.178;5.900;2023-06-22T03:13:20;4.70;;;3.28;;
50337;SDS011;46221;51.178;5.900;2023-06-22T03:15:46;4.55;;;3.30;;
50337;SDS011;46221;51.178;5.900;2023-06-22T03:18:13;4.80;;;2.95;;
50337;SDS011;46221;51.178;5.900;2023-06-22T03:20:39;5.05;;;3.00;;
50337;SDS011;46221;51.178;5.900;2023-06-22T03:23:05;10.60;;;3.53;;
50337;SDS011;46221;51.178;5.900;2023-06-22T03:25:32;4.63;;;2.97;;
50337;SDS011;46221;51.178;5.900;2023-06-22T03:28:00;4.28;;;3.10;;
50337;SDS011;46221;51.178;5.900;2023-06-22T03:30:26;5.45;;;3.22;;
50337;SDS011;46221;51.178;5.900;2023-06-22T03:32:53;6.60;;;3.50;;
50337;SDS011;46221;51.178;5.900;2023-06-22T03:35:20;4.93;;;3.17;;
50337;SDS011;46221;51.178;5.900;2023-06-22T03:37:47;5.53;;;3.70;;
50337;SDS011;46221;51.178;5.900;2023-06-22T03:40:13;5.00;;;3.38;;
50337;SDS011;46221;51.178;5.900;2023-06-22T03:42:39;4.68;;;3.72;;
50337;SDS011;46221;51.178;5.900;2023-06-22T03:45:06;4.30;;;2.92;;
50337;SDS011;46221;51.178;5.900;2023-06-22T03:47:32;4.75;;;3.20;;
50337;SDS011;46221;51.178;5.900;2023-06-22T03:49:59;4.40;;;2.90;;
50337;SDS011;46221;51.178;5.900;2023-06-22T03:52:26;4.82;;;3.60;;
50337;SDS011;46221;51.178;5.900;2023-06-22T03:54:52;5.43;;;3.17;;
50337;SDS011;46221;51.178;5.900;2023-06-22T03:57:18;4.53;;;3.00;;
50337;SDS011;46221;51.178;5.900;2023-06-22T03:59:45;6.25;;;3.10;;
50337;SDS011;46221;51.178;5.900;2023-06-22T04:02:11;5.65;;;3.35;;
50337;SDS011;46221;51.178;5.900;2023-06-22T04:04:38;5.03;;;3.30;;
50337;SDS011;46221;51.178;5.900;2023-06-22T04:07:05;4.65;;;3.20;;
50337;SDS011;46221;51.178;5.900;2023-06-22T04:09:32;7.53;;;3.35;;
50337;SDS011;46221;51.178;5.900;2023-06-22T04:11:58;5.95;;;3.10;;
50337;SDS011;46221;51.178;5.900;2023-06-22T04:14:24;6.72;;;3.33;;
50337;SDS011;46221;51.178;5.900;2023-06-22T04:16:51;4.45;;;3.10;;
50337;SDS011;46221;51.178;5.900;2023-06-22T04:19:17;4.80;;;3.25;;
50337;SDS011;46221;51.178;5.900;2023-06-22T04:21:44;10.38;;;3.10;;
50337;SDS011;46221;51.178;5.900;2023-06-22T04:24:11;3.92;;;2.70;;
50337;SDS011;46221;51.178;5.900;2023-06-22T04:26:37;4.90;;;3.17;;
50337;SDS011;46221;51.178;5.900;2023-06-22T04:29:04;5.45;;;3.17;;
50337;SDS011;46221;51.178;5.900;2023-06-22T04:31:31;3.80;;;2.70;;
50337;SDS011;46221;51.178;5.900;2023-06-22T04:33:59;4.68;;;3.20;;
50337;SDS011;46221;51.178;5.900;2023-06-22T04:36:35;4.65;;;3.33;;
50337;SDS011;46221;51.178;5.900;2023-06-22T04:39:05;4.78;;;3.22;;
50337;SDS011;46221;51.178;5.900;2023-06-22T04:41:33;3.53;;;2.47;;
50337;SDS011;46221;51.178;5.900;2023-06-22T04:44:08;4.78;;;2.95;;
50337;SDS011;46221;51.178;5.900;2023-06-22T04:46:35;5.07;;;3.00;;
50337;SDS011;46221;51.178;5.900;2023-06-22T04:49:07;4.45;;;3.35;;
50337;SDS011;46221;51.178;5.900;2023-06-22T04:51:39;4.72;;;3.10;;
50337;SDS011;46221;51.178;5.900;2023-06-22T04:54:07;4.47;;;2.95;;
50337;SDS011;46221;51.178;5.900;2023-06-22T04:56:33;4.22;;;2.90;;
50337;SDS011;46221;51.178;5.900;2023-06-22T04:59:00;4.53;;;2.83;;
50337;SDS011;46221;51.178;5.900;2023-06-22T05:01:27;4.40;;;3.20;;
50337;SDS011;46221;51.178;5.900;2023-06-22T05:03:53;5.03;;;3.00;;
50337;SDS011;46221;51.178;5.900;2023-06-22T05:06:23;4.18;;;3.00;;
50337;SDS011;46221;51.178;5.900;2023-06-22T05:08:53;3.97;;;2.80;;
50337;SDS011;46221;51.178;5.900;2023-06-22T05:11:24;6.28;;;4.00;;
50337;SDS011;46221;51.178;5.900;2023-06-22T05:13:51;7.07;;;5.13;;
50337;SDS011;46221;51.178;5.900;2023-06-22T05:16:17;8.13;;;5.45;;
50337;SDS011;46221;51.178;5.900;2023-06-22T05:18:44;8.88;;;6.00;;
50337;SDS011;46221;51.178;5.900;2023-06-22T05:21:10;9.10;;;6.20;;
50337;SDS011;46221;51.178;5.900;2023-06-22T05:23:37;9.05;;;6.93;;
50337;SDS011;46221;51.178;5.900;2023-06-22T05:26:03;9.13;;;7.97;;
50337;SDS011;46221;51.178;5.900;2023-06-22T05:28:29;9.55;;;6.63;;
50337;SDS011;46221;51.178;5.900;2023-06-22T05:30:56;10.88;;;6.57;;
50337;SDS011;46221;51.178;5.900;2023-06-22T05:33:22;8.98;;;6.70;;
50337;SDS011;46221;51.178;5.900;2023-06-22T05:35:49;6.85;;;6.03;;
50337;SDS011;46221;51.178;5.900;2023-06-22T05:38:15;7.32;;;6.45;;
50337;SDS011;46221;51.178;5.900;2023-06-22T05:40:42;9.73;;;6.28;;
50337;SDS011;46221;51.178;5.900;2023-06-22T05:43:08;11.57;;;6.47;;
50337;SDS011;46221;51.178;5.900;2023-06-22T05:45:34;7.50;;;5.72;;
50337;SDS011;46221;51.178;5.900;2023-06-22T05:48:01;9.80;;;7.40;;
50337;SDS011;46221;51.178;5.900;2023-06-22T05:50:27;11.38;;;7.47;;
50337;SDS011;46221;51.178;5.900;2023-06-22T05:52:54;9.55;;;7.70;;
50337;SDS011;46221;51.178;5.900;2023-06-22T05:55:20;10.55;;;8.02;;
50337;SDS011;46221;51.178;5.900;2023-06-22T05:57:47;9.85;;;8.05;;
50337;SDS011;46221;51.178;5.900;2023-06-22T06:00:14;9.20;;;7.10;;
50337;SDS011;46221;51.178;5.900;2023-06-22T06:02:40;8.93;;;7.03;;
50337;SDS011;46221;51.178;5.900;2023-06-22T06:05:11;9.23;;;7.72;;
50337;SDS011;46221;51.178;5.900;2023-06-22T06:07:40;10.32;;;7.10;;
50337;SDS011;46221;51.178;5.900;2023-06-22T06:10:06;9.65;;;6.97;;
50337;SDS011;46221;51.178;5.900;2023-06-22T06:12:33;7.80;;;6.97;;
50337;SDS011;46221;51.178;5.900;2023-06-22T06:14:59;8.70;;;6.93;;
50337;SDS011;46221;51.178;5.900;2023-06-22T06:17:26;8.40;;;6.82;;
50337;SDS011;46221;51.178;5.900;2023-06-22T06:19:52;8.40;;;6.38;;
50337;SDS011;46221;51.178;5.900;2023-06-22T06:22:18;8.57;;;6.78;;
50337;SDS011;46221;51.178;5.900;2023-06-22T06:24:47;7.53;;;6.22;;
50337;SDS011;46221;51.178;5.900;2023-06-22T06:27:13;9.80;;;6.07;;
50337;SDS011;46221;51.178;5.900;2023-06-22T06:29:40;8.35;;;6.30;;
50337;SDS011;46221;51.178;5.900;2023-06-22T06:32:06;7.57;;;6.13;;
50337;SDS011;46221;51.178;5.900;2023-06-22T06:34:33;9.00;;;6.90;;
50337;SDS011;46221;51.178;5.900;2023-06-22T06:36:59;10.00;;;7.63;;
50337;SDS011;46221;51.178;5.900;2023-06-22T06:39:26;10.70;;;7.78;;
50337;SDS011;46221;51.178;5.900;2023-06-22T06:41:52;9.27;;;7.28;;
50337;SDS011;46221;51.178;5.900;2023-06-22T06:44:18;10.85;;;8.00;;
50337;SDS011;46221;51.178;5.900;2023-06-22T06:46:45;11.00;;;7.40;;
50337;SDS011;46221;51.178;5.900;2023-06-22T06:49:11;9.55;;;7.50;;
50337;SDS011;46221;51.178;5.900;2023-06-22T06:51:37;9.88;;;7.00;;
50337;SDS011;46221;51.178;5.900;2023-06-22T06:54:04;10.98;;;8.15;;
50337;SDS011;46221;51.178;5.900;2023-06-22T06:56:30;10.00;;;7.53;;
50337;SDS011;46221;51.178;5.900;2023-06-22T06:58:59;10.25;;;8.10;;
50337;SDS011;46221;51.178;5.900;2023-06-22T07:01:25;9.18;;;7.35;;
50337;SDS011;46221;51.178;5.900;2023-06-22T07:03:51;9.27;;;7.10;;
50337;SDS011;46221;51.178;5.900;2023-06-22T07:06:18;8.57;;;7.40;;
50337;SDS011;46221;51.178;5.900;2023-06-22T07:08:44;9.73;;;7.00;;
50337;SDS011;46221;51.178;5.900;2023-06-22T07:11:10;8.90;;;7.32;;
50337;SDS011;46221;51.178;5.900;2023-06-22T07:13:37;10.32;;;7.72;;
50337;SDS011;46221;51.178;5.900;2023-06-22T07:16:04;9.38;;;7.32;;
50337;SDS011;46221;51.178;5.900;2023-06-22T07:18:30;8.52;;;7.30;;
50337;SDS011;46221;51.178;5.900;2023-06-22T07:20:57;10.18;;;7.30;;
50337;SDS011;46221;51.178;5.900;2023-06-22T07:23:23;8.75;;;7.28;;
50337;SDS011;46221;51.178;5.900;2023-06-22T07:25:50;12.25;;;9.30;;
50337;SDS011;46221;51.178;5.900;2023-06-22T07:28:16;14.13;;;11.13;;
50337;SDS011;46221;51.178;5.900;2023-06-22T07:30:42;13.75;;;9.93;;
50337;SDS011;46221;51.178;5.900;2023-06-22T07:33:09;12.60;;;10.40;;
50337;SDS011;46221;51.178;5.900;2023-06-22T07:35:35;11.30;;;10.10;;
50337;SDS011;46221;51.178;5.900;2023-06-22T07:38:02;12.60;;;9.82;;
50337;SDS011;46221;51.178;5.900;2023-06-22T07:40:32;13.52;;;10.40;;
50337;SDS011;46221;51.178;5.900;2023-06-22T07:43:00;11.48;;;10.23;;
50337;SDS011;46221;51.178;5.900;2023-06-22T07:45:26;11.27;;;9.23;;
50337;SDS011;46221;51.178;5.900;2023-06-22T07:47:53;12.75;;;10.45;;
50337;SDS011;46221;51.178;5.900;2023-06-22T07:50:19;11.07;;;9.93;;
50337;SDS011;46221;51.178;5.900;2023-06-22T07:52:46;10.95;;;9.85;;
50337;SDS011;46221;51.178;5.900;2023-06-22T07:55:14;11.65;;;9.90;;
50337;SDS011;46221;51.178;5.900;2023-06-22T07:57:40;12.70;;;10.85;;
50337;SDS011;46221;51.178;5.900;2023-06-22T08:00:08;12.02;;;10.00;;
50337;SDS011;46221;51.178;5.900;2023-06-22T08:02:42;11.65;;;9.52;;
50337;SDS011;46221;51.178;5.900;2023-06-22T08:05:09;11.30;;;8.20;;
50337;SDS011;46221;51.178;5.900;2023-06-22T08:07:47;9.73;;;8.30;;
50337;SDS011;46221;51.178;5.900;2023-06-22T08:10:14;11.20;;;8.07;;
50337;SDS011;46221;51.178;5.900;2023-06-22T08:12:41;9.15;;;7.75;;
50337;SDS011;46221;51.178;5.900;2023-06-22T08:15:08;9.43;;;7.25;;
50337;SDS011;46221;51.178;5.900;2023-06-22T08:17:38;8.00;;;6.78;;
50337;SDS011;46221;51.178;5.900;2023-06-22T08:20:06;9.00;;;6.95;;
50337;SDS011;46221;51.178;5.900;2023-06-22T08:22:39;9.88;;;6.55;;
50337;SDS011;46221;51.178;5.900;2023-06-22T08:25:06;9.45;;;6.68;;
50337;SDS011;46221;51.178;5.900;2023-06-22T08:27:33;7.80;;;6.15;;
50337;SDS011;46221;51.178;5.900;2023-06-22T08:29:59;8.75;;;6.40;;
50337;SDS011;46221;51.178;5.900;2023-06-22T08:32:29;8.02;;;5.40;;
50337;SDS011;46221;51.178;5.900;2023-06-22T08:34:56;6.97;;;5.47;;
50337;SDS011;46221;51.178;5.900;2023-06-22T08:37:22;12.38;;;5.30;;
50337;SDS011;46221;51.178;5.900;2023-06-22T08:39:58;8.00;;;5.70;;
50337;SDS011;46221;51.178;5.900;2023-06-22T08:42:24;6.68;;;5.43;;
50337;SDS011;46221;51.178;5.900;2023-06-22T08:44:51;7.00;;;5.35;;
50337;SDS011;46221;51.178;5.900;2023-06-22T08:47:18;7.88;;;5.57;;
50337;SDS011;46221;51.178;5.900;2023-06-22T08:49:44;6.20;;;5.13;;
50337;SDS011;46221;51.178;5.900;2023-06-22T08:52:10;9.82;;;5.22;;
50337;SDS011;46221;51.178;5.900;2023-06-22T08:54:37;7.60;;;5.22;;
50337;SDS011;46221;51.178;5.900;2023-06-22T08:57:03;6.32;;;5.15;;
50337;SDS011;46221;51.178;5.900;2023-06-22T08:59:30;8.27;;;4.95;;
50337;SDS011;46221;51.178;5.900;2023-06-22T09:01:56;6.38;;;5.40;;
50337;SDS011;46221;51.178;5.900;2023-06-22T09:04:24;7.22;;;5.07;;
50337;SDS011;46221;51.178;5.900;2023-06-22T09:06:50;6.18;;;4.80;;
50337;SDS011;46221;51.178;5.900;2023-06-22T09:09:18;5.75;;;5.13;;
50337;SDS011;46221;51.178;5.900;2023-06-22T09:11:45;6.13;;;5.15;;
50337;SDS011;46221;51.178;5.900;2023-06-22T09:14:11;5.32;;;4.28;;
50337;SDS011;46221;51.178;5.900;2023-06-22T09:16:37;5.53;;;4.70;;
50337;SDS011;46221;51.178;5.900;2023-06-22T09:19:04;6.88;;;4.55;;
50337;SDS011;46221;51.178;5.900;2023-06-22T09:21:30;5.50;;;4.88;;
50337;SDS011;46221;51.178;5.900;2023-06-22T09:23:59;5.40;;;4.25;;
50337;SDS011;46221;51.178;5.900;2023-06-22T09:26:26;5.00;;;4.50;;
50337;SDS011;46221;51.178;5.900;2023-06-22T09:28:52;6.10;;;4.70;;
50337;SDS011;46221;51.178;5.900;2023-06-22T09:31:18;5.63;;;4.40;;
50337;SDS011;46221;51.178;5.900;2023-06-22T09:33:52;6.40;;;4.35;;
50337;SDS011;46221;51.178;5.900;2023-06-22T09:36:19;5.05;;;4.47;;
50337;SDS011;46221;51.178;5.900;2023-06-22T09:38:45;6.38;;;4.15;;
50337;SDS011;46221;51.178;5.900;2023-06-22T09:41:12;5.95;;;4.43;;
50337;SDS011;46221;51.178;5.900;2023-06-22T09:43:38;4.60;;;3.90;;
50337;SDS011;46221;51.178;5.900;2023-06-22T09:46:04;5.43;;;4.25;;
50337;SDS011;46221;51.178;5.900;2023-06-22T09:48:31;5.90;;;4.90;;
50337;SDS011;46221;51.178;5.900;2023-06-22T09:50:58;5.05;;;3.85;;
50337;SDS011;46221;51.178;5.900;2023-06-22T09:53:24;5.68;;;4.30;;
50337;SDS011;46221;51.178;5.900;2023-06-22T09:55:51;5.32;;;3.97;;
50337;SDS011;46221;51.178;5.900;2023-06-22T09:58:17;6.22;;;4.30;;
50337;SDS011;46221;51.178;5.900;2023-06-22T10:00:43;5.10;;;4.05;;
50337;SDS011;46221;51.178;5.900;2023-06-22T10:03:10;5.93;;;5.07;;
50337;SDS011;46221;51.178;5.900;2023-06-22T10:05:39;7.03;;;4.57;;
50337;SDS011;46221;51.178;5.900;2023-06-22T10:08:05;6.20;;;4.25;;
50337;SDS011;46221;51.178;5.900;2023-06-22T10:10:33;5.03;;;4.43;;
50337;SDS011;46221;51.178;5.900;2023-06-22T10:13:02;5.68;;;4.28;;
50337;SDS011;46221;51.178;5.900;2023-06-22T10:15:29;6.05;;;4.22;;
50337;SDS011;46221;51.178;5.900;2023-06-22T10:17:56;5.30;;;4.40;;
50337;SDS011;46221;51.178;5.900;2023-06-22T10:20:22;4.95;;;4.32;;
50337;SDS011;46221;51.178;5.900;2023-06-22T10:22:49;5.00;;;4.50;;
50337;SDS011;46221;51.178;5.900;2023-06-22T10:25:15;4.63;;;3.95;;
50337;SDS011;46221;51.178;5.900;2023-06-22T10:27:42;5.53;;;4.32;;
50337;SDS011;46221;51.178;5.900;2023-06-22T10:30:09;5.10;;;4.40;;
50337;SDS011;46221;51.178;5.900;2023-06-22T10:32:37;4.47;;;3.90;;
50337;SDS011;46221;51.178;5.900;2023-06-22T10:35:03;5.28;;;4.25;;
50337;SDS011;46221;51.178;5.900;2023-06-22T10:37:30;5.40;;;4.60;;
50337;SDS011;46221;51.178;5.900;2023-06-22T10:39:56;5.63;;;4.38;;
50337;SDS011;46221;51.178;5.900;2023-06-22T10:42:23;7.80;;;4.60;;
50337;SDS011;46221;51.178;5.900;2023-06-22T10:44:49;6.03;;;4.60;;
50337;SDS011;46221;51.178;5.900;2023-06-22T10:47:15;5.47;;;4.25;;
50337;SDS011;46221;51.178;5.900;2023-06-22T10:49:42;4.50;;;3.97;;
50337;SDS011;46221;51.178;5.900;2023-06-22T10:52:09;5.72;;;4.55;;
50337;SDS011;46221;51.178;5.900;2023-06-22T10:54:35;4.95;;;4.20;;
50337;SDS011;46221;51.178;5.900;2023-06-22T10:57:02;5.03;;;4.47;;
50337;SDS011;46221;51.178;5.900;2023-06-22T10:59:29;4.85;;;4.15;;
50337;SDS011;46221;51.178;5.900;2023-06-22T11:01:56;5.20;;;4.10;;
50337;SDS011;46221;51.178;5.900;2023-06-22T11:04:22;5.65;;;4.40;;
50337;SDS011;46221;51.178;5.900;2023-06-22T11:06:49;5.60;;;4.55;;
50337;SDS011;46221;51.178;5.900;2023-06-22T11:09:16;5.43;;;4.35;;
50337;SDS011;46221;51.178;5.900;2023-06-22T11:11:53;5.38;;;4.32;;
50337;SDS011;46221;51.178;5.900;2023-06-22T11:14:20;5.45;;;4.30;;
50337;SDS011;46221;51.178;5.900;2023-06-22T11:16:48;6.05;;;4.70;;
50337;SDS011;46221;51.178;5.900;2023-06-22T11:19:14;5.20;;;4.10;;
50337;SDS011;46221;51.178;5.900;2023-06-22T11:21:40;4.82;;;4.22;;
50337;SDS011;46221;51.178;5.900;2023-06-22T11:24:07;6.15;;;5.00;;
50337;SDS011;46221;51.178;5.900;2023-06-22T11:26:33;7.20;;;6.50;;
50337;SDS011;46221;51.178;5.900;2023-06-22T11:29:00;6.32;;;5.60;;
50337;SDS011;46221;51.178;5.900;2023-06-22T11:31:26;6.97;;;5.90;;
50337;SDS011;46221;51.178;5.900;2023-06-22T11:33:53;9.25;;;7.60;;
50337;SDS011;46221;51.178;5.900;2023-06-22T11:36:19;5.70;;;4.97;;
50337;SDS011;46221;51.178;5.900;2023-06-22T11:38:46;5.78;;;4.55;;
50337;SDS011;46221;51.178;5.900;2023-06-22T11:41:12;5.70;;;4.75;;
50337;SDS011;46221;51.178;5.900;2023-06-22T11:43:38;6.60;;;5.90;;
50337;SDS011;46221;51.178;5.900;2023-06-22T11:46:05;5.68;;;4.65;;
50337;SDS011;46221;51.178;5.900;2023-06-22T11:48:31;5.55;;;4.85;;
50337;SDS011;46221;51.178;5.900;2023-06-22T11:50:58;5.82;;;5.05;;
50337;SDS011;46221;51.178;5.900;2023-06-22T11:53:25;5.50;;;4.63;;
50337;SDS011;46221;51.178;5.900;2023-06-22T11:55:52;5.97;;;4.95;;
50337;SDS011;46221;51.178;5.900;2023-06-22T11:58:22;5.40;;;4.53;;
50337;SDS011;46221;51.178;5.900;2023-06-22T12:00:48;5.93;;;5.32;;
50337;SDS011;46221;51.178;5.900;2023-06-22T12:03:18;6.15;;;4.90;;
50337;SDS011;46221;51.178;5.900;2023-06-22T12:05:44;8.10;;;5.50;;
50337;SDS011;46221;51.178;5.900;2023-06-22T12:08:11;7.47;;;4.90;;
50337;SDS011;46221;51.178;5.900;2023-06-22T12:10:38;5.45;;;4.95;;
50337;SDS011;46221;51.178;5.900;2023-06-22T12:13:04;5.75;;;5.15;;
50337;SDS011;46221;51.178;5.900;2023-06-22T12:15:31;5.50;;;4.75;;
50337;SDS011;46221;51.178;5.900;2023-06-22T12:17:57;5.85;;;4.75;;
50337;SDS011;46221;51.178;5.900;2023-06-22T12:20:24;5.32;;;4.78;;
50337;SDS011;46221;51.178;5.900;2023-06-22T12:22:51;5.65;;;5.05;;
50337;SDS011;46221;51.178;5.900;2023-06-22T12:25:18;5.40;;;4.65;;
50337;SDS011;46221;51.178;5.900;2023-06-22T12:27:45;6.20;;;5.60;;
50337;SDS011;46221;51.178;5.900;2023-06-22T12:30:11;5.82;;;5.20;;
50337;SDS011;46221;51.178;5.900;2023-06-22T12:32:38;6.10;;;5.50;;
50337;SDS011;46221;51.178;5.900;2023-06-22T12:35:04;5.78;;;4.90;;
50337;SDS011;46221;51.178;5.900;2023-06-22T12:37:31;6.88;;;5.18;;
50337;SDS011;46221;51.178;5.900;2023-06-22T12:39:58;5.65;;;5.05;;
50337;SDS011;46221;51.178;5.900;2023-06-22T12:42:24;5.70;;;4.95;;
50337;SDS011;46221;51.178;5.900;2023-06-22T12:44:52;7.65;;;5.93;;
50337;SDS011;46221;51.178;5.900;2023-06-22T12:47:20;6.43;;;5.50;;
50337;SDS011;46221;51.178;5.900;2023-06-22T12:49:46;5.53;;;5.03;;
50337;SDS011;46221;51.178;5.900;2023-06-22T12:52:13;5.70;;;5.07;;
50337;SDS011;46221;51.178;5.900;2023-06-22T12:54:39;5.43;;;4.72;;
50337;SDS011;46221;51.178;5.900;2023-06-22T12:57:20;6.35;;;4.82;;
50337;SDS011;46221;51.178;5.900;2023-06-22T12:59:46;6.15;;;4.85;;
50337;SDS011;46221;51.178;5.900;2023-06-22T13:02:13;5.70;;;4.85;;
50337;SDS011;46221;51.178;5.900;2023-06-22T13:04:39;5.70;;;5.05;;
50337;SDS011;46221;51.178;5.900;2023-06-22T13:07:06;8.10;;;6.20;;
50337;SDS011;46221;51.178;5.900;2023-06-22T13:09:47;7.40;;;5.13;;
50337;SDS011;46221;51.178;5.900;2023-06-22T13:12:19;7.13;;;5.15;;
50337;SDS011;46221;51.178;5.900;2023-06-22T13:14:46;5.60;;;4.82;;
50337;SDS011;46221;51.178;5.900;2023-06-22T13:17:13;6.30;;;5.70;;
50337;SDS011;46221;51.178;5.900;2023-06-22T13:19:40;7.07;;;5.18;;
50337;SDS011;46221;51.178;5.900;2023-06-22T13:24:53;6.18;;;5.53;;
50337;SDS011;46221;51.178;5.900;2023-06-22T13:27:21;6.40;;;4.85;;
50337;SDS011;46221;51.178;5.900;2023-06-22T13:29:48;7.15;;;5.65;;
50337;SDS011;46221;51.178;5.900;2023-06-22T13:32:14;8.30;;;6.03;;
50337;SDS011;46221;51.178;5.900;2023-06-22T13:34:41;6.95;;;5.80;;
50337;SDS011;46221;51.178;5.900;2023-06-22T13:37:07;6.15;;;5.40;;
50337;SDS011;46221;51.178;5.900;2023-06-22T13:39:34;7.90;;;5.10;;
50337;SDS011;46221;51.178;5.900;2023-06-22T13:42:00;9.80;;;6.85;;
50337;SDS011;46221;51.178;5.900;2023-06-22T13:44:26;6.10;;;5.50;;
50337;SDS011;46221;51.178;5.900;2023-06-22T13:46:55;8.73;;;6.15;;
50337;SDS011;46221;51.178;5.900;2023-06-22T13:49:21;7.40;;;6.30;;
50337;SDS011;46221;51.178;5.900;2023-06-22T13:51:47;8.60;;;5.63;;
50337;SDS011;46221;51.178;5.900;2023-06-22T13:54:15;8.40;;;5.50;;
50337;SDS011;46221;51.178;5.900;2023-06-22T13:56:55;8.48;;;5.45;;
50337;SDS011;46221;51.178;5.900;2023-06-22T13:59:21;9.80;;;7.10;;
50337;SDS011;46221;51.178;5.900;2023-06-22T14:01:48;7.53;;;6.45;;
50337;SDS011;46221;51.178;5.900;2023-06-22T14:04:14;7.03;;;5.95;;
50337;SDS011;46221;51.178;5.900;2023-06-22T14:06:41;7.15;;;5.70;;
50337;SDS011;46221;51.178;5.900;2023-06-22T14:09:07;8.27;;;6.25;;
50337;SDS011;46221;51.178;5.900;2023-06-22T14:11:33;7.25;;;5.95;;
50337;SDS011;46221;51.178;5.900;2023-06-22T14:14:00;7.30;;;6.00;;
50337;SDS011;46221;51.178;5.900;2023-06-22T14:16:26;7.10;;;5.38;;
50337;SDS011;46221;51.178;5.900;2023-06-22T14:18:53;8.65;;;5.50;;
50337;SDS011;46221;51.178;5.900;2023-06-22T14:21:22;7.65;;;5.70;;
50337;SDS011;46221;51.178;5.900;2023-06-22T14:23:49;8.25;;;5.70;;
50337;SDS011;46221;51.178;5.900;2023-06-22T14:26:15;11.48;;;7.78;;
50337;SDS011;46221;51.178;5.900;2023-06-22T14:28:45;9.32;;;5.60;;
50337;SDS011;46221;51.178;5.900;2023-06-22T14:31:14;7.68;;;6.55;;
50337;SDS011;46221;51.178;5.900;2023-06-22T14:33:43;7.97;;;6.32;;
50337;SDS011;46221;51.178;5.900;2023-06-22T14:36:10;9.55;;;8.55;;
50337;SDS011;46221;51.178;5.900;2023-06-22T14:38:37;11.43;;;10.27;;
50337;SDS011;46221;51.178;5.900;2023-06-22T14:41:04;12.85;;;10.85;;
50337;SDS011;46221;51.178;5.900;2023-06-22T14:43:43;14.80;;;12.02;;
50337;SDS011;46221;51.178;5.900;2023-06-22T14:46:09;13.75;;;12.30;;
50337;SDS011;46221;51.178;5.900;2023-06-22T14:48:36;14.65;;;13.13;;
50337;SDS011;46221;51.178;5.900;2023-06-22T14:51:02;13.10;;;11.80;;
50337;SDS011;46221;51.178;5.900;2023-06-22T14:53:29;13.63;;;12.23;;
50337;SDS011;46221;51.178;5.900;2023-06-22T14:55:55;14.98;;;13.48;;